VOZ1373 YMLT-YMML
Flight info
| Callsign | VOZ1373 |
|---|---|
| Flight time | 0h 49m |
| Altitude | 32000 |
| Route | FLIKI1B FLIKI H215 RAZZI W687 ML DCT |
| Aircraft | B738/M-SDE2E3FGHIRWXY/LB1 |
Departure
| Time | 2026-05-08 06:49 |
|---|---|
| Airport | Launceston Airport (YMLT) |
Arrival
| Time | 2026-05-08 07:39 |
|---|---|
| Airport | Melbourne Airport (YMML) |
| Time | Latitude | Longitude | Altitude | Speed | Heading |
|---|---|---|---|---|---|
| 2026-05-08 06:15 | -41.54265 | 147.20641 | 582 ft | 0 kts | 294° |
| 2026-05-08 06:45 | -41.54264 | 147.20638 | 582 ft | 2 kts | 298° |
| 2026-05-08 06:45 | -41.54229 | 147.20645 | 582 ft | 9 kts | 30° |
| 2026-05-08 06:45 | -41.54163 | 147.20616 | 582 ft | 12 kts | 328° |
| 2026-05-08 06:46 | -41.54097 | 147.20558 | 583 ft | 11 kts | 327° |
| 2026-05-08 06:46 | -41.54031 | 147.20501 | 584 ft | 11 kts | 327° |
| 2026-05-08 06:46 | -41.53967 | 147.20449 | 586 ft | 11 kts | 329° |
| 2026-05-08 06:46 | -41.53896 | 147.20388 | 588 ft | 12 kts | 326° |
| 2026-05-08 06:47 | -41.53830 | 147.20332 | 590 ft | 11 kts | 334° |
| 2026-05-08 06:47 | -41.53763 | 147.20334 | 593 ft | 10 kts | 27° |
| 2026-05-08 06:47 | -41.53726 | 147.20400 | 594 ft | 8 kts | 66° |
| 2026-05-08 06:47 | -41.53743 | 147.20447 | 594 ft | 3 kts | 147° |
| 2026-05-08 06:48 | -41.53744 | 147.20448 | 594 ft | 0 kts | 147° |
| 2026-05-08 06:48 | -41.53763 | 147.20463 | 594 ft | 9 kts | 148° |
| 2026-05-08 06:49 | -41.53950 | 147.20624 | 591 ft | 69 kts | 147° |
| 2026-05-08 06:49 | -41.54565 | 147.21150 | 592 ft | 138 kts | 147° |
| 2026-05-08 06:49 | -41.55148 | 147.21676 | 794 ft | 157 kts | 147° |
| 2026-05-08 06:49 | -41.56395 | 147.22747 | 1837 ft | 164 kts | 150° |
| 2026-05-08 06:50 | -41.57369 | 147.23535 | 2629 ft | 166 kts | 151° |
| 2026-05-08 06:50 | -41.58357 | 147.24355 | 3461 ft | 167 kts | 153° |
| 2026-05-08 06:50 | -41.59026 | 147.24910 | 4032 ft | 168 kts | 153° |
| 2026-05-08 06:50 | -41.60066 | 147.25774 | 4610 ft | 186 kts | 154° |
| 2026-05-08 06:51 | -41.61044 | 147.27036 | 4878 ft | 220 kts | 123° |
| 2026-05-08 06:51 | -41.61101 | 147.29987 | 5277 ft | 270 kts | 71° |
| 2026-05-08 06:51 | -41.60402 | 147.31422 | 5586 ft | 287 kts | 47° |
| 2026-05-08 06:51 | -41.58648 | 147.32801 | 6222 ft | 304 kts | 14° |
| 2026-05-08 06:52 | -41.56526 | 147.32801 | 6897 ft | 307 kts | 340° |
| 2026-05-08 06:52 | -41.54742 | 147.31403 | 7784 ft | 294 kts | 307° |
| 2026-05-08 06:52 | -41.53602 | 147.29207 | 8681 ft | 287 kts | 293° |
| 2026-05-08 06:52 | -41.52556 | 147.26887 | 9474 ft | 293 kts | 296° |
| 2026-05-08 06:53 | -41.51308 | 147.24680 | 10163 ft | 306 kts | 304° |
| 2026-05-08 06:53 | -41.49872 | 147.22520 | 10553 ft | 316 kts | 307° |
| 2026-05-08 06:53 | -41.48302 | 147.20349 | 10980 ft | 337 kts | 313° |
| 2026-05-08 06:53 | -41.46421 | 147.18382 | 11604 ft | 348 kts | 321° |
| 2026-05-08 06:54 | -41.44353 | 147.16652 | 12308 ft | 355 kts | 326° |
| 2026-05-08 06:54 | -41.42162 | 147.15097 | 13136 ft | 358 kts | 330° |
| 2026-05-08 06:54 | -41.39925 | 147.13707 | 13986 ft | 361 kts | 332° |
| 2026-05-08 06:54 | -41.37617 | 147.12331 | 14714 ft | 365 kts | 332° |
| 2026-05-08 06:55 | -41.35265 | 147.10946 | 15331 ft | 375 kts | 333° |
| 2026-05-08 06:55 | -41.32852 | 147.09578 | 16063 ft | 378 kts | 334° |
| 2026-05-08 06:55 | -41.30414 | 147.08245 | 16884 ft | 381 kts | 334° |
| 2026-05-08 06:55 | -41.27938 | 147.06917 | 17549 ft | 388 kts | 335° |
| 2026-05-08 06:56 | -41.25412 | 147.05571 | 18187 ft | 393 kts | 335° |
| 2026-05-08 06:56 | -41.22861 | 147.04212 | 18853 ft | 397 kts | 335° |
| 2026-05-08 06:56 | -41.20287 | 147.02837 | 19491 ft | 400 kts | 335° |
| 2026-05-08 06:56 | -41.17687 | 147.01445 | 20094 ft | 405 kts | 335° |
| 2026-05-08 06:57 | -41.15060 | 147.00036 | 20690 ft | 410 kts | 335° |
| 2026-05-08 06:57 | -41.12401 | 146.98609 | 21314 ft | 414 kts | 335° |
| 2026-05-08 06:57 | -41.09723 | 146.97172 | 21943 ft | 417 kts | 335° |
| 2026-05-08 06:57 | -41.07010 | 146.95716 | 22497 ft | 422 kts | 335° |
| 2026-05-08 06:58 | -41.04265 | 146.94244 | 23028 ft | 427 kts | 335° |
| 2026-05-08 06:58 | -41.01487 | 146.92755 | 23543 ft | 433 kts | 335° |
| 2026-05-08 06:58 | -40.98675 | 146.91250 | 23993 ft | 438 kts | 335° |
| 2026-05-08 06:58 | -40.95869 | 146.89750 | 24454 ft | 442 kts | 335° |
| 2026-05-08 06:59 | -40.93007 | 146.88222 | 24921 ft | 445 kts | 335° |
| 2026-05-08 06:59 | -40.90119 | 146.86681 | 25372 ft | 449 kts | 336° |
| 2026-05-08 06:59 | -40.87207 | 146.85129 | 25810 ft | 453 kts | 336° |
| 2026-05-08 06:59 | -40.84271 | 146.83565 | 26245 ft | 457 kts | 336° |
| 2026-05-08 07:00 | -40.81307 | 146.81988 | 26651 ft | 461 kts | 336° |
| 2026-05-08 07:00 | -40.78322 | 146.80401 | 27097 ft | 464 kts | 336° |
| 2026-05-08 07:00 | -40.75319 | 146.78807 | 27523 ft | 467 kts | 336° |
| 2026-05-08 07:00 | -40.72292 | 146.77201 | 27917 ft | 471 kts | 336° |
| 2026-05-08 07:01 | -40.69242 | 146.75584 | 28312 ft | 475 kts | 336° |
| 2026-05-08 07:01 | -40.66170 | 146.73957 | 28760 ft | 477 kts | 336° |
| 2026-05-08 07:01 | -40.63091 | 146.72330 | 29322 ft | 476 kts | 337° |
| 2026-05-08 07:01 | -40.60028 | 146.70711 | 29887 ft | 474 kts | 337° |
| 2026-05-08 07:02 | -40.56972 | 146.69098 | 30452 ft | 472 kts | 337° |
| 2026-05-08 07:02 | -40.53919 | 146.67488 | 30872 ft | 472 kts | 337° |
| 2026-05-08 07:02 | -40.50862 | 146.65877 | 31239 ft | 474 kts | 337° |
| 2026-05-08 07:02 | -40.47800 | 146.64264 | 31646 ft | 474 kts | 337° |
| 2026-05-08 07:03 | -40.44734 | 146.62652 | 32071 ft | 474 kts | 337° |
| 2026-05-08 07:03 | -40.41654 | 146.61033 | 32143 ft | 481 kts | 337° |
| 2026-05-08 07:03 | -40.35447 | 146.57775 | 32156 ft | 488 kts | 337° |
| 2026-05-08 07:04 | -40.29040 | 146.54420 | 32160 ft | 503 kts | 337° |
| 2026-05-08 07:04 | -40.22452 | 146.50978 | 32160 ft | 515 kts | 337° |
| 2026-05-08 07:05 | -40.15787 | 146.47504 | 32151 ft | 516 kts | 337° |
| 2026-05-08 07:05 | -40.09119 | 146.44035 | 32155 ft | 515 kts | 337° |
| 2026-05-08 07:06 | -40.02472 | 146.40583 | 32163 ft | 513 kts | 337° |
| 2026-05-08 07:06 | -39.95845 | 146.37155 | 32174 ft | 511 kts | 337° |
| 2026-05-08 07:07 | -39.89249 | 146.33764 | 32174 ft | 509 kts | 337° |
| 2026-05-08 07:07 | -39.82672 | 146.30388 | 32174 ft | 507 kts | 337° |
| 2026-05-08 07:08 | -39.76111 | 146.27024 | 32171 ft | 506 kts | 337° |
| 2026-05-08 07:08 | -39.69567 | 146.23676 | 32184 ft | 505 kts | 338° |
| 2026-05-08 07:09 | -39.63061 | 146.20368 | 32185 ft | 505 kts | 338° |
| 2026-05-08 07:09 | -39.56517 | 146.17051 | 32191 ft | 505 kts | 338° |
| 2026-05-08 07:10 | -39.49970 | 146.13736 | 32191 ft | 505 kts | 338° |
| 2026-05-08 07:10 | -39.43418 | 146.10423 | 32194 ft | 506 kts | 338° |
| 2026-05-08 07:11 | -39.36856 | 146.07111 | 32202 ft | 506 kts | 338° |
| 2026-05-08 07:11 | -39.30291 | 146.03793 | 32184 ft | 507 kts | 338° |
| 2026-05-08 07:12 | -39.27047 | 146.02155 | 32178 ft | 491 kts | 338° |
| 2026-05-08 07:12 | -39.23922 | 146.00581 | 32184 ft | 474 kts | 338° |
| 2026-05-08 07:12 | -39.17918 | 145.97557 | 31836 ft | 463 kts | 338° |
| 2026-05-08 07:13 | -39.14935 | 145.96057 | 31507 ft | 457 kts | 338° |
| 2026-05-08 07:13 | -39.11984 | 145.94573 | 31118 ft | 453 kts | 338° |
| 2026-05-08 07:13 | -39.09053 | 145.93102 | 30739 ft | 450 kts | 338° |
| 2026-05-08 07:13 | -39.06146 | 145.91643 | 30346 ft | 447 kts | 338° |
| 2026-05-08 07:14 | -39.03259 | 145.90196 | 29907 ft | 444 kts | 338° |
| 2026-05-08 07:14 | -39.00390 | 145.88760 | 29503 ft | 439 kts | 338° |
| 2026-05-08 07:14 | -38.97557 | 145.87343 | 29081 ft | 435 kts | 338° |
| 2026-05-08 07:14 | -38.94745 | 145.85938 | 28685 ft | 431 kts | 338° |
| 2026-05-08 07:15 | -38.91956 | 145.84546 | 28273 ft | 428 kts | 338° |
| 2026-05-08 07:15 | -38.89197 | 145.83169 | 27871 ft | 424 kts | 338° |
| 2026-05-08 07:15 | -38.86455 | 145.81802 | 27475 ft | 421 kts | 338° |
| 2026-05-08 07:15 | -38.83772 | 145.80465 | 27090 ft | 418 kts | 338° |
| 2026-05-08 07:16 | -38.81073 | 145.79122 | 26697 ft | 414 kts | 337° |
| 2026-05-08 07:16 | -38.78395 | 145.77790 | 26328 ft | 411 kts | 337° |
| 2026-05-08 07:16 | -38.75740 | 145.76470 | 25969 ft | 409 kts | 337° |
| 2026-05-08 07:16 | -38.73086 | 145.75152 | 25567 ft | 409 kts | 337° |
| 2026-05-08 07:17 | -38.70414 | 145.73826 | 25196 ft | 417 kts | 337° |
| 2026-05-08 07:17 | -38.67668 | 145.72463 | 24786 ft | 427 kts | 337° |
| 2026-05-08 07:17 | -38.64899 | 145.71091 | 24365 ft | 426 kts | 337° |
| 2026-05-08 07:17 | -38.62151 | 145.69732 | 23952 ft | 423 kts | 337° |
| 2026-05-08 07:18 | -38.59406 | 145.68375 | 23491 ft | 421 kts | 337° |
| 2026-05-08 07:18 | -38.56686 | 145.67031 | 23055 ft | 416 kts | 337° |
| 2026-05-08 07:18 | -38.53999 | 145.65704 | 22642 ft | 412 kts | 337° |
| 2026-05-08 07:18 | -38.51346 | 145.64395 | 22241 ft | 407 kts | 337° |
| 2026-05-08 07:19 | -38.48716 | 145.63099 | 21850 ft | 403 kts | 337° |
| 2026-05-08 07:19 | -38.46142 | 145.61744 | 21462 ft | 397 kts | 332° |
| 2026-05-08 07:19 | -38.43699 | 145.60136 | 21088 ft | 392 kts | 329° |
| 2026-05-08 07:19 | -38.41320 | 145.58470 | 20710 ft | 388 kts | 328° |
| 2026-05-08 07:20 | -38.38997 | 145.56821 | 20344 ft | 385 kts | 328° |
| 2026-05-08 07:20 | -38.36659 | 145.55170 | 19975 ft | 383 kts | 328° |
| 2026-05-08 07:20 | -38.34332 | 145.53541 | 19609 ft | 380 kts | 328° |
| 2026-05-08 07:20 | -38.32017 | 145.51934 | 19230 ft | 378 kts | 329° |
| 2026-05-08 07:21 | -38.29711 | 145.50342 | 18864 ft | 376 kts | 329° |
| 2026-05-08 07:21 | -38.27413 | 145.48763 | 18494 ft | 375 kts | 329° |
| 2026-05-08 07:21 | -38.25122 | 145.47191 | 18081 ft | 373 kts | 329° |
| 2026-05-08 07:21 | -38.22841 | 145.45627 | 17683 ft | 371 kts | 329° |
| 2026-05-08 07:22 | -38.20575 | 145.44076 | 17304 ft | 369 kts | 329° |
| 2026-05-08 07:22 | -38.18320 | 145.42534 | 16928 ft | 367 kts | 329° |
| 2026-05-08 07:22 | -38.16072 | 145.40996 | 16561 ft | 366 kts | 329° |
| 2026-05-08 07:22 | -38.13826 | 145.39461 | 16196 ft | 366 kts | 329° |
| 2026-05-08 07:23 | -38.11592 | 145.37935 | 15834 ft | 365 kts | 329° |
| 2026-05-08 07:23 | -38.09360 | 145.36412 | 15466 ft | 363 kts | 329° |
| 2026-05-08 07:23 | -38.07143 | 145.34899 | 15103 ft | 361 kts | 329° |
| 2026-05-08 07:23 | -38.04961 | 145.33412 | 14745 ft | 359 kts | 329° |
| 2026-05-08 07:24 | -38.02763 | 145.31916 | 14379 ft | 357 kts | 329° |
| 2026-05-08 07:24 | -38.00586 | 145.30426 | 13998 ft | 355 kts | 328° |
| 2026-05-08 07:24 | -37.98431 | 145.28923 | 13646 ft | 350 kts | 328° |
| 2026-05-08 07:24 | -37.96352 | 145.27465 | 13536 ft | 334 kts | 327° |
| 2026-05-08 07:25 | -37.94349 | 145.26061 | 13183 ft | 326 kts | 327° |
| 2026-05-08 07:25 | -37.92362 | 145.24666 | 12651 ft | 326 kts | 327° |
| 2026-05-08 07:25 | -37.88419 | 145.21905 | 11678 ft | 321 kts | 327° |
| 2026-05-08 07:26 | -37.86469 | 145.20543 | 11243 ft | 320 kts | 327° |
| 2026-05-08 07:26 | -37.84515 | 145.19181 | 10905 ft | 320 kts | 327° |
| 2026-05-08 07:26 | -37.82586 | 145.17873 | 10524 ft | 318 kts | 328° |
| 2026-05-08 07:26 | -37.80619 | 145.16566 | 10141 ft | 318 kts | 328° |
| 2026-05-08 07:27 | -37.78677 | 145.15281 | 9913 ft | 312 kts | 328° |
| 2026-05-08 07:27 | -37.76754 | 145.14003 | 9564 ft | 311 kts | 328° |
| 2026-05-08 07:27 | -37.74845 | 145.12734 | 9245 ft | 309 kts | 328° |
| 2026-05-08 07:27 | -37.72948 | 145.11472 | 8948 ft | 307 kts | 328° |
| 2026-05-08 07:28 | -37.71050 | 145.10262 | 8677 ft | 304 kts | 330° |
| 2026-05-08 07:28 | -37.69138 | 145.09141 | 8378 ft | 302 kts | 331° |
| 2026-05-08 07:28 | -37.67230 | 145.08042 | 8074 ft | 300 kts | 331° |
| 2026-05-08 07:28 | -37.65344 | 145.06952 | 7790 ft | 297 kts | 331° |
| 2026-05-08 07:29 | -37.63463 | 145.05859 | 7500 ft | 297 kts | 330° |
| 2026-05-08 07:29 | -37.61595 | 145.04767 | 7199 ft | 297 kts | 330° |
| 2026-05-08 07:29 | -37.59717 | 145.03667 | 6895 ft | 297 kts | 330° |
| 2026-05-08 07:29 | -37.57840 | 145.02567 | 6590 ft | 297 kts | 330° |
| 2026-05-08 07:30 | -37.55963 | 145.01469 | 6265 ft | 297 kts | 330° |
| 2026-05-08 07:30 | -37.54097 | 145.00364 | 5939 ft | 296 kts | 329° |
| 2026-05-08 07:30 | -37.52257 | 144.99248 | 5774 ft | 289 kts | 329° |
| 2026-05-08 07:30 | -37.50487 | 144.98173 | 5646 ft | 282 kts | 329° |
| 2026-05-08 07:31 | -37.48754 | 144.97124 | 5603 ft | 268 kts | 329° |
| 2026-05-08 07:31 | -37.47114 | 144.96132 | 5494 ft | 255 kts | 329° |
| 2026-05-08 07:31 | -37.45617 | 144.95030 | 5150 ft | 243 kts | 308° |
| 2026-05-08 07:31 | -37.44791 | 144.93335 | 4944 ft | 218 kts | 278° |
| 2026-05-08 07:32 | -37.44588 | 144.91548 | 4857 ft | 199 kts | 259° |
| 2026-05-08 07:32 | -37.44786 | 144.89871 | 4814 ft | 189 kts | 252° |
| 2026-05-08 07:32 | -37.45013 | 144.88286 | 4720 ft | 180 kts | 252° |
| 2026-05-08 07:32 | -37.45232 | 144.86753 | 4666 ft | 177 kts | 252° |
| 2026-05-08 07:33 | -37.45445 | 144.85260 | 4571 ft | 174 kts | 252° |
| 2026-05-08 07:33 | -37.45659 | 144.83757 | 4371 ft | 174 kts | 252° |
| 2026-05-08 07:33 | -37.45874 | 144.82263 | 4183 ft | 171 kts | 250° |
| 2026-05-08 07:33 | -37.46422 | 144.81070 | 4129 ft | 155 kts | 208° |
| 2026-05-08 07:34 | -37.47494 | 144.80794 | 4009 ft | 164 kts | 186° |
| 2026-05-08 07:34 | -37.48648 | 144.80750 | 3797 ft | 166 kts | 183° |
| 2026-05-08 07:34 | -37.49789 | 144.80778 | 3566 ft | 163 kts | 181° |
| 2026-05-08 07:34 | -37.50919 | 144.80858 | 3367 ft | 164 kts | 179° |
| 2026-05-08 07:35 | -37.52057 | 144.81021 | 3135 ft | 163 kts | 176° |
| 2026-05-08 07:35 | -37.53177 | 144.81217 | 2915 ft | 162 kts | 175° |
| 2026-05-08 07:35 | -37.54301 | 144.81424 | 2698 ft | 166 kts | 175° |
| 2026-05-08 07:35 | -37.55436 | 144.81637 | 2467 ft | 161 kts | 174° |
| 2026-05-08 07:36 | -37.56503 | 144.81840 | 2273 ft | 147 kts | 175° |
| 2026-05-08 07:36 | -37.57467 | 144.82021 | 2066 ft | 134 kts | 175° |
| 2026-05-08 07:36 | -37.58394 | 144.82193 | 1893 ft | 136 kts | 174° |
| 2026-05-08 07:36 | -37.59324 | 144.82367 | 1693 ft | 133 kts | 173° |
| 2026-05-08 07:37 | -37.60229 | 144.82537 | 1493 ft | 133 kts | 174° |
| 2026-05-08 07:37 | -37.61149 | 144.82709 | 1323 ft | 135 kts | 173° |
| 2026-05-08 07:37 | -37.62084 | 144.82898 | 1098 ft | 136 kts | 173° |
| 2026-05-08 07:37 | -37.63024 | 144.83077 | 934 ft | 139 kts | 173° |
| 2026-05-08 07:38 | -37.63657 | 144.83193 | 822 ft | 138 kts | 173° |
| 2026-05-08 07:38 | -37.64617 | 144.83367 | 631 ft | 140 kts | 173° |
| 2026-05-08 07:38 | -37.65587 | 144.83545 | 462 ft | 143 kts | 173° |
| 2026-05-08 07:38 | -37.66740 | 144.83755 | 395 ft | 91 kts | 172° |
| 2026-05-08 07:39 | -37.67074 | 144.83817 | 383 ft | 62 kts | 172° |
| 2026-05-08 07:39 | -37.67594 | 144.83913 | 368 ft | 47 kts | 172° |
| 2026-05-08 07:39 | -37.67793 | 144.83952 | 359 ft | 19 kts | 165° |
| 2026-05-08 07:39 | -37.67854 | 144.84014 | 356 ft | 17 kts | 115° |
| 2026-05-08 07:40 | -37.67874 | 144.84097 | 358 ft | 6 kts | 90° |
| 2026-05-08 07:40 | -37.67870 | 144.84140 | 364 ft | 3 kts | 81° |
| 2026-05-08 07:40 | -37.67867 | 144.84167 | 361 ft | 3 kts | 81° |
| 2026-05-08 07:40 | -37.67863 | 144.84196 | 358 ft | 4 kts | 82° |
| 2026-05-08 07:41 | -37.67858 | 144.84247 | 359 ft | 8 kts | 83° |
| 2026-05-08 07:41 | -37.67835 | 144.84320 | 361 ft | 10 kts | 48° |
| 2026-05-08 07:41 | -37.67771 | 144.84364 | 369 ft | 11 kts | 18° |
| 2026-05-08 07:41 | -37.67689 | 144.84361 | 370 ft | 13 kts | 353° |
| 2026-05-08 07:42 | -37.67595 | 144.84343 | 371 ft | 15 kts | 351° |
| 2026-05-08 07:42 | -37.67486 | 144.84321 | 374 ft | 17 kts | 353° |
| 2026-05-08 07:42 | -37.67390 | 144.84305 | 377 ft | 14 kts | 352° |
| 2026-05-08 07:42 | -37.67298 | 144.84287 | 379 ft | 11 kts | 351° |
| 2026-05-08 07:43 | -37.67230 | 144.84274 | 380 ft | 9 kts | 351° |
| 2026-05-08 07:43 | -37.67160 | 144.84261 | 382 ft | 12 kts | 351° |
| 2026-05-08 07:43 | -37.67083 | 144.84262 | 383 ft | 10 kts | 27° |
| 2026-05-08 07:43 | -37.67056 | 144.84336 | 385 ft | 10 kts | 83° |
| 2026-05-08 07:44 | -37.67046 | 144.84416 | 386 ft | 9 kts | 75° |
| 2026-05-08 07:44 | -37.67021 | 144.84474 | 388 ft | 5 kts | 62° |
| 2026-05-08 07:44 | -37.67022 | 144.84515 | 388 ft | 3 kts | 140° |
| 2026-05-08 07:44 | -37.67046 | 144.84523 | 388 ft | 4 kts | 173° |
| 2026-05-08 07:45 | -37.67070 | 144.84525 | 387 ft | 2 kts | 178° |
| 2026-05-08 07:45 | -37.67078 | 144.84525 | 387 ft | 0 kts | 178° |